Time;durP1;ratioP1;P1;durP2;ratioP2;P2;SDS_P1;SDS_P2;PMS_P1;PMS_P2;Temp;Humidity;BMP_temperature;BMP_pressure;BME280_temperature;BME280_humidity;BME280_pressure;Samples;Min_cycle;Max_cycle;Signal;HPM_P1;HPM_P2
2022/04/28 00:00:30;;;;;;;16.73;6.53;;;5.20;99.90;;;;;;5044552;28;20112;-86
2022/04/28 00:02:56;;;;;;;13.95;5.03;;;6.10;99.90;;;;;;5061906;28;20045;-87
2022/04/28 00:05:22;;;;;;;17.17;7.43;;;5.40;99.90;;;;;;5060465;28;20102;-86
2022/04/28 00:07:48;;;;;;;14.95;5.45;;;5.40;99.90;;;;;;5025076;28;20033;-86
2022/04/28 00:10:14;;;;;;;13.75;4.85;;;5.50;99.90;;;;;;5059479;28;20072;-88
2022/04/28 00:12:40;;;;;;;10.73;4.75;;;5.50;99.90;;;;;;5042164;28;20048;-85
2022/04/28 00:15:07;;;;;;;15.80;5.20;;;5.60;99.90;;;;;;5059330;28;20044;-86
2022/04/28 00:17:33;;;;;;;11.57;4.53;;;5.70;99.90;;;;;;5041356;28;20064;-86
2022/04/28 00:19:58;;;;;;;10.90;4.28;;;5.70;99.90;;;;;;5041170;28;20053;-86
2022/04/28 00:22:25;;;;;;;9.68;4.97;;;5.70;99.90;;;;;;5041728;28;20037;-85
2022/04/28 00:24:51;;;;;;;11.00;4.80;;;5.70;99.90;;;;;;5058650;28;20475;-85
2022/04/28 00:27:19;;;;;;;12.25;4.72;;;5.80;99.90;;;;;;5058766;28;20045;-85
2022/04/28 00:29:45;;;;;;;18.15;4.68;;;5.80;99.90;;;;;;5041819;28;20114;-86
2022/04/28 00:32:14;;;;;;;10.02;3.47;;;6.00;99.90;;;;;;5025611;28;20479;-86
2022/04/28 00:34:40;;;;;;;11.60;3.90;;;6.20;99.90;;;;;;5041304;28;20071;-85
2022/04/28 00:37:09;;;;;;;14.02;3.25;;;6.30;99.90;;;;;;5041375;28;20041;-87
2022/04/28 00:39:37;;;;;;;11.27;3.25;;;6.30;99.90;;;;;;5060745;28;20515;-86
2022/04/28 00:42:10;;;;;;;11.05;2.60;;;6.30;99.90;;;;;;5044525;28;20461;-86
2022/04/28 00:44:36;;;;;;;10.57;2.78;;;6.40;99.90;;;;;;5059699;28;20052;-85
2022/04/28 00:47:02;;;;;;;13.52;2.70;;;7.30;99.90;;;;;;5059062;28;20045;-87
2022/04/28 00:52:18;;;;;;;10.25;2.60;;;6.50;99.90;;;;;;5041099;28;20399;-86
2022/04/28 00:54:45;;;;;;;12.75;3.72;;;6.50;99.90;;;;;;5059142;28;20045;-87
2022/04/28 00:57:13;;;;;;;15.13;3.72;;;6.90;99.90;;;;;;5059032;28;20052;-85
2022/04/28 00:59:39;;;;;;;12.02;2.75;;;6.50;99.90;;;;;;5058873;28;20502;-86
2022/04/28 01:02:10;;;;;;;9.18;3.00;;;6.50;99.90;;;;;;5041002;28;20045;-86
2022/04/28 01:04:37;;;;;;;13.20;2.97;;;6.60;99.90;;;;;;5040657;28;20049;-86
2022/04/28 01:07:04;;;;;;;7.38;2.30;;;7.50;99.90;;;;;;5024107;28;20423;-85
2022/04/28 01:09:36;;;;;;;12.48;3.33;;;6.70;99.90;;;;;;5041859;28;20041;-86
2022/04/28 01:12:14;;;;;;;19.15;4.72;;;6.50;99.90;;;;;;5028865;28;20049;-86
2022/04/28 01:14:44;;;;;;;14.65;3.13;;;6.70;99.90;;;;;;5061912;28;20049;-86
2022/04/28 01:17:10;;;;;;;15.68;3.35;;;6.70;99.90;;;;;;5064357;28;20052;-87
2022/04/28 01:19:36;;;;;;;11.77;3.20;;;7.30;99.90;;;;;;5045405;28;20052;-85
2022/04/28 01:22:04;;;;;;;6.93;2.75;;;6.70;99.90;;;;;;5063723;28;20044;-86
2022/04/28 01:24:31;;;;;;;13.98;3.60;;;6.60;99.90;;;;;;5029019;28;20124;-86
2022/04/28 01:26:58;;;;;;;9.65;2.97;;;6.60;99.90;;;;;;5063469;28;20044;-86
2022/04/28 01:29:24;;;;;;;9.65;3.05;;;6.60;99.90;;;;;;5063062;28;20068;-86
2022/04/28 01:31:50;;;;;;;12.57;3.10;;;6.60;99.90;;;;;;5028968;28;20087;-86
2022/04/28 01:34:16;;;;;;;16.85;4.20;;;6.70;99.90;;;;;;5029020;28;20041;-85
2022/04/28 01:36:44;;;;;;;13.57;3.25;;;7.00;99.90;;;;;;5046274;28;20040;-86
2022/04/28 01:39:10;;;;;;;6.95;3.42;;;6.70;99.90;;;;;;5046514;28;20101;-85
2022/04/28 01:41:36;;;;;;;10.68;3.53;;;6.70;99.90;;;;;;5062129;28;20040;-85
2022/04/28 01:44:02;;;;;;;10.75;3.53;;;6.70;99.90;;;;;;5063361;28;20040;-85
2022/04/28 01:46:29;;;;;;;10.85;2.63;;;6.80;99.90;;;;;;5047012;28;20071;-85
2022/04/28 01:48:55;;;;;;;14.35;3.83;;;7.30;99.90;;;;;;5079366;28;20084;-86
2022/04/28 01:56:49;;;;;;;9.48;3.97;;;6.70;99.90;;;;;;5147757;22;20053;-89
2022/04/28 01:59:15;;;;;;;14.93;3.47;;;7.40;99.90;;;;;;5033712;28;20098;-89
2022/04/28 02:01:40;;;;;;;11.77;3.25;;;6.50;99.90;;;;;;5038506;28;20026;-89
2022/04/28 02:04:06;;;;;;;14.52;3.88;;;7.60;99.90;;;;;;5036057;28;20022;-89
2022/04/28 02:06:33;;;;;;;9.68;3.22;;;7.30;99.90;;;;;;5020871;28;20145;-88
2022/04/28 02:08:59;;;;;;;16.10;4.47;;;7.40;99.90;;;;;;5019704;28;20043;-90
2022/04/28 02:11:25;;;;;;;11.57;2.92;;;7.40;99.90;;;;;;5036125;28;20054;-90
2022/04/28 02:13:51;;;;;;;7.45;2.50;;;6.90;99.90;;;;;;5025146;28;20030;-89
2022/04/28 02:16:16;;;;;;;13.55;3.65;;;6.70;99.90;;;;;;5022462;28;20132;-91
2022/04/28 02:18:45;;;;;;;9.77;2.83;;;6.90;99.90;;;;;;5004233;28;20057;-90
2022/04/28 02:21:11;;;;;;;11.05;2.63;;;7.30;99.90;;;;;;5006313;28;20044;-89
2022/04/28 02:23:36;;;;;;;11.70;2.65;;;6.90;99.90;;;;;;5006967;28;20046;-90
2022/04/28 02:26:03;;;;;;;12.00;4.28;;;7.00;99.90;;;;;;4990942;28;20038;-90
2022/04/28 02:28:28;;;;;;;9.18;3.30;;;6.90;99.90;;;;;;5003800;28;20072;-90
2022/04/28 02:30:54;;;;;;;12.82;3.25;;;6.90;99.90;;;;;;4988964;28;20046;-89
2022/04/28 02:33:19;;;;;;;12.98;2.95;;;6.90;99.90;;;;;;5014797;28;20392;-89
2022/04/28 02:35:45;;;;;;;9.25;2.58;;;6.90;99.90;;;;;;4997606;28;20042;-89
2022/04/28 02:38:11;;;;;;;11.65;3.60;;;7.00;99.90;;;;;;5011799;28;20081;-90
2022/04/28 02:40:37;;;;;;;17.63;3.78;;;8.00;99.90;;;;;;5022434;28;20048;-90
2022/04/28 02:43:04;;;;;;;12.00;3.08;;;7.00;99.90;;;;;;5022879;28;20042;-90
2022/04/28 02:45:30;;;;;;;11.10;3.15;;;7.00;99.90;;;;;;5005022;28;20053;-90
2022/04/28 02:47:55;;;;;;;8.70;2.55;;;7.00;99.90;;;;;;5004033;28;20057;-89
2022/04/28 02:50:22;;;;;;;10.57;2.45;;;6.90;99.90;;;;;;5020509;28;20369;-90
2022/04/28 02:52:50;;;;;;;10.73;2.60;;;6.90;99.90;;;;;;5020137;28;20103;-90
2022/04/28 02:55:15;;;;;;;6.32;2.47;;;6.90;99.90;;;;;;5020813;28;20054;-90
2022/04/28 02:57:41;;;;;;;9.38;2.30;;;6.80;99.90;;;;;;5004265;28;20147;-89
2022/04/28 03:00:07;;;;;;;9.35;2.60;;;6.80;99.90;;;;;;4989330;28;20109;-90
2022/04/28 03:02:33;;;;;;;8.05;2.92;;;6.80;99.90;;;;;;5008413;28;20526;-89
2022/04/28 03:05:01;;;;;;;14.00;3.00;;;6.90;99.90;;;;;;4988919;28;20050;-89
2022/04/28 03:13:01;;;;;;;10.80;2.80;;;6.90;99.90;;;;;;5023137;28;20056;-90
2022/04/28 03:15:26;;;;;;;9.38;3.35;;;6.90;99.90;;;;;;5004601;28;20396;-89
2022/04/28 03:17:52;;;;;;;9.77;2.88;;;6.90;99.90;;;;;;5031033;28;20018;-87
2022/04/28 03:20:18;;;;;;;8.50;3.25;;;6.90;99.90;;;;;;5036501;28;20026;-86
2022/04/28 03:22:43;;;;;;;12.00;2.92;;;6.90;99.90;;;;;;5020479;28;20056;-87
2022/04/28 03:25:09;;;;;;;10.98;2.97;;;6.90;99.90;;;;;;5019142;28;20042;-89
2022/04/28 03:27:38;;;;;;;11.57;3.60;;;6.90;99.90;;;;;;5037058;28;20034;-89
2022/04/28 03:30:04;;;;;;;18.27;3.00;;;7.20;99.90;;;;;;5028349;28;20094;-90
2022/04/28 03:32:30;;;;;;;9.55;2.75;;;6.80;99.90;;;;;;5019037;28;20048;-90
2022/04/28 03:34:56;;;;;;;8.05;3.38;;;6.90;99.90;;;;;;5003531;28;20093;-90
2022/04/28 03:37:21;;;;;;;13.30;2.92;;;6.80;99.90;;;;;;5014979;28;20045;-90
2022/04/28 03:39:47;;;;;;;10.07;3.15;;;6.80;99.90;;;;;;5003576;28;20448;-89
2022/04/28 03:42:12;;;;;;;12.55;3.47;;;6.80;99.90;;;;;;5002037;28;20054;-89
2022/04/28 03:44:38;;;;;;;12.13;3.53;;;6.80;99.90;;;;;;5002981;28;20117;-90
2022/04/28 03:47:04;;;;;;;11.27;2.95;;;6.80;99.90;;;;;;5002871;28;20080;-89
2022/04/28 03:49:30;;;;;;;11.40;3.33;;;6.80;99.90;;;;;;4986215;28;20034;-89
2022/04/28 03:51:55;;;;;;;10.70;3.38;;;6.80;99.90;;;;;;4986890;28;20045;-90
2022/04/28 03:54:21;;;;;;;8.88;2.92;;;6.80;99.90;;;;;;5002997;28;20080;-90
2022/04/28 03:56:47;;;;;;;12.52;3.90;;;6.80;99.90;;;;;;5004782;28;20045;-88
2022/04/28 03:59:13;;;;;;;15.23;3.55;;;6.80;99.90;;;;;;5006923;28;20105;-89
2022/04/28 04:01:38;;;;;;;17.95;3.65;;;6.80;99.90;;;;;;5002885;28;20096;-90
2022/04/28 04:04:04;;;;;;;8.95;3.33;;;6.80;99.90;;;;;;4986401;28;20146;-90
2022/04/28 04:06:31;;;;;;;11.15;3.70;;;6.70;99.90;;;;;;5002440;28;20068;-90
2022/04/28 04:08:59;;;;;;;9.05;3.72;;;6.70;99.90;;;;;;4986798;28;20046;-89
2022/04/28 04:11:25;;;;;;;12.98;3.92;;;6.70;99.90;;;;;;4986975;28;20057;-90
2022/04/28 04:13:51;;;;;;;11.18;3.92;;;6.70;99.90;;;;;;4987013;28;20049;-90
2022/04/28 04:16:29;;;;;;;10.80;4.40;;;6.70;99.90;;;;;;4987920;28;20046;-90
2022/04/28 04:18:55;;;;;;;10.95;3.03;;;6.70;99.90;;;;;;4989207;28;20056;-89
2022/04/28 04:21:21;;;;;;;10.52;3.42;;;7.20;99.90;;;;;;5004733;28;20042;-89
2022/04/28 04:23:46;;;;;;;13.70;3.85;;;7.40;99.90;;;;;;5002630;28;20492;-89
2022/04/28 04:26:12;;;;;;;15.45;3.30;;;6.40;99.90;;;;;;4986913;28;20169;-89
2022/04/28 04:28:38;;;;;;;15.70;3.60;;;6.80;99.90;;;;;;5001519;28;20102;-90
2022/04/28 04:33:47;;;;;;;8.57;3.60;;;6.60;99.90;;;;;;5001197;28;20061;-90
2022/04/28 04:36:13;;;;;;;18.15;4.95;;;6.40;99.90;;;;;;4985542;28;20058;-90
2022/04/28 04:38:39;;;;;;;9.70;3.42;;;7.20;99.90;;;;;;4985214;28;20045;-90
2022/04/28 04:41:10;;;;;;;12.32;3.38;;;6.80;99.90;;;;;;4984378;28;20497;-90
2022/04/28 04:43:36;;;;;;;10.65;3.80;;;6.80;99.90;;;;;;5001261;28;20042;-90
2022/04/28 04:46:05;;;;;;;10.32;3.70;;;6.70;99.90;;;;;;4987468;28;20070;-89
2022/04/28 04:48:31;;;;;;;11.73;3.33;;;6.90;99.90;;;;;;4994764;28;20169;-90
2022/04/28 04:50:57;;;;;;;10.63;4.00;;;7.30;99.90;;;;;;4988123;28;20469;-90
2022/04/28 04:53:23;;;;;;;11.50;3.63;;;7.00;99.90;;;;;;5004201;28;20138;-90
2022/04/28 04:55:49;;;;;;;13.23;4.53;;;6.90;99.90;;;;;;5004425;28;20046;-89
2022/04/28 04:58:14;;;;;;;11.35;3.45;;;7.50;99.90;;;;;;5003999;28;20502;-89
2022/04/28 05:00:40;;;;;;;15.50;3.85;;;6.90;99.90;;;;;;5005047;28;20036;-90
2022/04/28 05:03:06;;;;;;;10.55;4.13;;;7.00;99.90;;;;;;5022006;28;20125;-91
2022/04/28 05:05:31;;;;;;;20.63;5.30;;;6.90;99.90;;;;;;5005219;28;20117;-91
2022/04/28 05:07:57;;;;;;;16.58;4.30;;;7.50;99.90;;;;;;5003866;28;20049;-91
2022/04/28 05:10:23;;;;;;;10.60;4.13;;;8.00;99.90;;;;;;4993618;28;20042;-90
2022/04/28 05:12:49;;;;;;;12.90;3.72;;;7.20;99.90;;;;;;4983711;28;20047;-89
2022/04/28 05:15:15;;;;;;;79.97;9.95;;;7.70;99.90;;;;;;4974862;28;20049;-89
2022/04/28 05:17:40;;;;;;;16.08;4.40;;;7.20;99.90;;;;;;5016353;28;20148;-91
2022/04/28 05:20:07;;;;;;;13.20;4.55;;;7.80;99.90;;;;;;4967010;28;20104;-90
2022/04/28 05:22:33;;;;;;;12.02;4.43;;;7.40;99.90;;;;;;4967728;28;20058;-90
2022/04/28 05:24:59;;;;;;;13.10;3.80;;;7.40;99.90;;;;;;4967651;28;20059;-89
2022/04/28 05:27:25;;;;;;;12.85;5.00;;;7.50;99.90;;;;;;4967835;28;20053;-90
2022/04/28 05:29:51;;;;;;;11.60;4.18;;;8.40;99.90;;;;;;4967536;28;20046;-90
2022/04/28 05:32:17;;;;;;;9.48;3.95;;;8.40;99.90;;;;;;4998528;28;20137;-89
2022/04/28 05:34:43;;;;;;;12.43;3.70;;;7.70;99.90;;;;;;4987924;28;20484;-89
2022/04/28 05:37:14;;;;;;;13.43;4.40;;;7.80;99.90;;;;;;4987339;28;20042;-90
2022/04/28 05:39:42;;;;;;;14.90;3.88;;;7.50;99.90;;;;;;4988656;28;20060;-90
2022/04/28 05:42:08;;;;;;;10.27;3.97;;;7.70;99.90;;;;;;4987787;28;20129;-89
2022/04/28 05:47:21;;;;;;;9.90;3.58;;;8.80;99.90;;;;;;5006500;28;20057;-91
2022/04/28 05:49:50;;;;;;;16.83;4.93;;;7.90;99.90;;;;;;4993580;28;20081;-90
2022/04/28 05:52:15;;;;;;;12.73;3.85;;;8.10;99.90;;;;;;4999101;28;20503;-90
2022/04/28 05:54:41;;;;;;;10.10;3.85;;;9.10;99.90;;;;;;5018958;28;20036;-90
2022/04/28 05:57:07;;;;;;;12.95;4.47;;;8.60;99.90;;;;;;4996957;28;20440;-90
2022/04/28 05:59:33;;;;;;;11.80;3.83;;;9.70;99.90;;;;;;5014404;28;20125;-90
2022/04/28 06:01:59;;;;;;;12.32;3.28;;;9.80;99.90;;;;;;4982054;28;20102;-90
2022/04/28 06:04:25;;;;;;;10.82;3.35;;;9.20;99.90;;;;;;4995812;28;20041;-90
2022/04/28 06:06:51;;;;;;;13.75;3.15;;;9.00;99.90;;;;;;5013744;28;20113;-91
2022/04/28 06:09:16;;;;;;;16.33;3.85;;;9.40;99.90;;;;;;5017036;28;20038;-91
2022/04/28 06:11:43;;;;;;;18.00;3.30;;;9.80;99.90;;;;;;4998490;28;20033;-90
2022/04/28 06:14:08;;;;;;;15.40;3.08;;;9.50;99.90;;;;;;5001512;28;20038;-91
2022/04/28 06:16:34;;;;;;;15.18;3.13;;;10.40;99.90;;;;;;5014662;28;20045;-91
2022/04/28 06:19:00;;;;;;;8.75;2.30;;;10.30;99.90;;;;;;5004549;28;20113;-90
2022/04/28 06:21:25;;;;;;;13.88;2.65;;;10.10;99.90;;;;;;5000853;28;20049;-91
2022/04/28 06:23:51;;;;;;;14.85;2.58;;;9.30;99.90;;;;;;4991070;28;20050;-92
2022/04/28 06:26:17;;;;;;;17.17;2.88;;;9.80;99.90;;;;;;4990439;28;20061;-91
2022/04/28 06:28:43;;;;;;;11.63;2.30;;;9.30;99.90;;;;;;5007138;28;20045;-89
2022/04/28 06:31:08;;;;;;;12.23;2.40;;;10.20;99.90;;;;;;5001665;28;20060;-89
2022/04/28 06:33:34;;;;;;;12.18;2.10;;;10.30;99.90;;;;;;4969735;28;20480;-89
2022/04/28 06:36:00;;;;;;;7.90;1.95;;;10.60;99.90;;;;;;4984100;28;20042;-89
2022/04/28 06:38:41;;;;;;;7.30;2.13;;;10.50;99.90;;;;;;4985431;28;20077;-89
2022/04/28 06:41:06;;;;;;;13.05;2.60;;;9.70;99.90;;;;;;5002705;28;20045;-89
2022/04/28 06:43:49;;;;;;;6.38;1.80;;;9.90;99.90;;;;;;4984296;28;20139;-89
2022/04/28 06:46:15;;;;;;;9.70;2.83;;;9.60;99.90;;;;;;4984418;28;20053;-89
2022/04/28 06:48:41;;;;;;;9.13;2.00;;;9.20;99.90;;;;;;5000828;28;20042;-89
2022/04/28 06:51:07;;;;;;;8.32;1.92;;;10.80;99.90;;;;;;4984562;28;20400;-89
2022/04/28 06:53:33;;;;;;;11.80;3.03;;;10.70;99.90;;;;;;5017953;28;20054;-89
2022/04/28 06:55:59;;;;;;;9.75;2.42;;;11.20;99.90;;;;;;4999535;28;20049;-89
2022/04/28 06:58:24;;;;;;;9.82;2.05;;;11.30;99.90;;;;;;4984138;28;20050;-89
2022/04/28 07:00:50;;;;;;;11.95;2.45;;;11.60;99.90;;;;;;4983623;28;20041;-89
2022/04/28 07:03:16;;;;;;;10.45;2.55;;;10.30;99.90;;;;;;4983753;28;20096;-89
2022/04/28 07:05:42;;;;;;;10.38;1.75;;;10.50;99.90;;;;;;5000301;28;20041;-90
2022/04/28 07:08:08;;;;;;;6.60;1.40;;;10.20;99.90;;;;;;4999363;28;20440;-89
2022/04/28 07:10:37;;;;;;;9.15;2.22;;;10.10;99.90;;;;;;4999649;28;20048;-89
2022/04/28 07:13:03;;;;;;;6.13;1.90;;;10.80;99.90;;;;;;5017530;28;20054;-89
2022/04/28 07:15:28;;;;;;;10.85;2.25;;;10.50;99.90;;;;;;4985373;28;20061;-89
2022/04/28 07:17:54;;;;;;;11.27;2.85;;;10.30;99.90;;;;;;4999837;28;20052;-90
2022/04/28 07:20:20;;;;;;;13.25;2.63;;;10.90;99.90;;;;;;4984804;28;20046;-89
2022/04/28 07:22:46;;;;;;;14.77;2.22;;;11.40;99.90;;;;;;4997739;28;20049;-89
2022/04/28 07:25:11;;;;;;;13.52;3.10;;;12.60;99.90;;;;;;4972148;28;20125;-89
2022/04/28 07:27:37;;;;;;;8.82;2.17;;;12.10;99.90;;;;;;4994166;28;20046;-88
2022/04/28 07:30:03;;;;;;;14.68;2.40;;;12.60;99.90;;;;;;4993901;28;20070;-89
2022/04/28 07:32:29;;;;;;;9.65;2.20;;;11.40;99.90;;;;;;4981560;28;20428;-89
2022/04/28 07:34:56;;;;;;;10.50;1.98;;;10.90;99.90;;;;;;4980484;28;20038;-89
2022/04/28 07:37:21;;;;;;;6.38;1.92;;;11.60;99.90;;;;;;4980735;28;20038;-90
2022/04/28 07:39:47;;;;;;;12.60;2.15;;;11.00;99.90;;;;;;4948012;28;20045;-89
2022/04/28 07:42:13;;;;;;;9.80;2.05;;;10.90;99.90;;;;;;4996731;28;20046;-88
2022/04/28 07:44:38;;;;;;;11.02;2.25;;;11.00;99.90;;;;;;4964214;28;20106;-89
2022/04/28 07:47:04;;;;;;;7.47;1.17;;;11.70;99.90;;;;;;4963752;28;20488;-89
2022/04/28 07:49:29;;;;;;;7.28;1.40;;;10.90;99.90;;;;;;4963505;28;20125;-89
2022/04/28 07:51:55;;;;;;;6.97;2.00;;;10.20;99.90;;;;;;4963534;28;20046;-89
2022/04/28 07:54:21;;;;;;;11.15;1.73;;;10.60;99.90;;;;;;4963726;28;20038;-90
2022/04/28 07:56:46;;;;;;;8.00;1.45;;;11.30;99.90;;;;;;4963335;28;20133;-89
2022/04/28 07:59:12;;;;;;;6.32;1.40;;;12.70;95.20;;;;;;4985028;28;20052;-88
2022/04/28 08:01:38;;;;;;;5.85;1.42;;;12.10;92.20;;;;;;5017762;28;20045;-89
2022/04/28 08:04:04;;;;;;;9.05;1.83;;;11.80;94.30;;;;;;5000125;28;20050;-89
2022/04/28 08:06:29;;;;;;;8.15;1.55;;;11.50;99.30;;;;;;5015263;28;20041;-88
2022/04/28 08:08:55;;;;;;;5.47;1.33;;;12.00;91.60;;;;;;5016568;28;20038;-89
2022/04/28 08:11:21;;;;;;;10.05;1.92;;;12.30;91.90;;;;;;4999348;28;20435;-88
2022/04/28 08:13:46;;;;;;;9.23;1.88;;;13.00;92.30;;;;;;4999416;28;20026;-88
2022/04/28 08:16:12;;;;;;;7.85;1.63;;;12.70;93.60;;;;;;4998787;28;20080;-89
2022/04/28 08:18:39;;;;;;;9.13;2.58;;;12.00;95.90;;;;;;5000853;28;20048;-90
2022/04/28 08:21:08;;;;;;;12.65;2.53;;;12.30;95.50;;;;;;5018932;28;20049;-89
2022/04/28 08:23:37;;;;;;;13.27;2.53;;;12.00;96.90;;;;;;4987224;28;20041;-89
2022/04/28 08:26:04;;;;;;;12.50;2.63;;;11.70;97.10;;;;;;4987687;28;20041;-89
2022/04/28 08:28:30;;;;;;;11.63;3.13;;;12.90;96.70;;;;;;5020701;28;20121;-88
2022/04/28 08:30:56;;;;;;;11.75;2.10;;;11.80;94.20;;;;;;4986792;28;20046;-88
2022/04/28 08:33:22;;;;;;;8.23;2.00;;;11.90;94.10;;;;;;4987773;28;20052;-89
2022/04/28 08:35:47;;;;;;;18.73;3.10;;;12.40;97.50;;;;;;5004813;28;20074;-89
2022/04/28 08:38:13;;;;;;;12.30;1.90;;;12.40;96.00;;;;;;5007647;28;20477;-89
2022/04/28 08:40:42;;;;;;;7.25;1.70;;;13.80;91.10;;;;;;4989622;28;20034;-89
2022/04/28 08:43:08;;;;;;;11.23;1.95;;;14.00;80.30;;;;;;5005047;28;20056;-90
2022/04/28 08:46:50;;;;;;;6.53;1.45;;;15.10;70.70;;;;;;4987979;28;20073;-89
2022/04/28 08:48:29;;;;;;;10.73;1.70;;;15.50;53.30;;;;;;5021571;28;20180;-89
2022/04/28 08:50:56;;;;;;;7.30;1.77;;;15.70;51.50;;;;;;4987747;28;20077;-88
2022/04/28 08:53:22;;;;;;;5.40;1.88;;;16.10;52.10;;;;;;5003664;28;20046;-89
2022/04/28 08:55:48;;;;;;;8.50;1.38;;;16.30;38.20;;;;;;4989657;28;20105;-88
2022/04/28 08:58:13;;;;;;;9.45;1.52;;;16.00;34.90;;;;;;5006552;28;20046;-88
2022/04/28 09:00:39;;;;;;;7.70;2.63;;;15.50;44.80;;;;;;4989030;28;20048;-89
2022/04/28 09:03:07;;;;;;;5.85;1.80;;;15.50;44.90;;;;;;4986625;28;20026;-89
2022/04/28 09:05:33;;;;;;;10.48;1.73;;;14.50;58.30;;;;;;5002663;28;20092;-89
2022/04/28 09:07:59;;;;;;;12.70;2.25;;;15.10;66.80;;;;;;4970960;28;20042;-88
2022/04/28 09:10:32;;;;;;;7.45;2.00;;;14.10;54.30;;;;;;5002748;28;20044;-89
2022/04/28 09:15:54;;;;;;;9.65;2.00;;;14.00;56.80;;;;;;5019849;28;20053;-88
2022/04/28 09:18:21;;;;;;;6.53;1.80;;;13.70;55.00;;;;;;5001627;28;20428;-88
2022/04/28 09:20:47;;;;;;;14.48;2.17;;;14.30;56.90;;;;;;5001150;28;20045;-89
2022/04/28 09:23:14;;;;;;;11.25;2.78;;;14.30;60.00;;;;;;4986240;28;20098;-88
2022/04/28 09:25:42;;;;;;;10.50;1.95;;;13.60;68.70;;;;;;5001494;28;20045;-88
2022/04/28 09:28:10;;;;;;;10.10;2.20;;;12.90;69.80;;;;;;4985736;28;20045;-88
2022/04/28 09:30:49;;;;;;;13.25;2.55;;;14.00;71.50;;;;;;4984979;28;20103;-89
2022/04/28 09:33:20;;;;;;;7.95;2.35;;;13.00;73.70;;;;;;5019531;28;20577;-88
2022/04/28 09:35:51;;;;;;;10.85;2.55;;;13.30;75.50;;;;;;4985573;28;20439;-89
2022/04/28 09:38:17;;;;;;;12.13;2.25;;;12.90;76.90;;;;;;5002004;28;20064;-89
2022/04/28 09:43:35;;;;;;;11.45;3.10;;;14.10;72.60;;;;;;5019490;28;20053;-88
2022/04/28 09:46:03;;;;;;;13.63;2.95;;;14.30;69.80;;;;;;5001905;28;20041;-88
2022/04/28 09:48:31;;;;;;;10.85;3.35;;;13.60;69.60;;;;;;5001983;28;20046;-89
2022/04/28 09:51:06;;;;;;;11.98;3.90;;;13.70;74.30;;;;;;4985520;28;20046;-89
2022/04/28 09:53:34;;;;;;;19.10;4.13;;;13.90;64.30;;;;;;4985814;28;20184;-89
2022/04/28 09:56:03;;;;;;;10.18;3.00;;;14.10;64.90;;;;;;5001029;28;20477;-89
2022/04/28 09:58:29;;;;;;;12.23;3.03;;;14.40;62.30;;;;;;5001348;28;20471;-89
2022/04/28 10:01:00;;;;;;;12.90;3.42;;;13.50;69.30;;;;;;4984856;28;20058;-89
2022/04/28 10:03:28;;;;;;;15.18;3.38;;;13.40;68.70;;;;;;4985085;28;20049;-89
2022/04/28 10:05:55;;;;;;;12.05;2.83;;;12.80;75.90;;;;;;4968625;28;20128;-89
2022/04/28 10:08:21;;;;;;;14.35;3.33;;;13.30;72.80;;;;;;4985058;28;20100;-89
2022/04/28 10:10:50;;;;;;;12.43;3.22;;;12.90;79.10;;;;;;4985169;28;20038;-89
2022/04/28 10:13:17;;;;;;;11.80;2.67;;;13.80;79.70;;;;;;4985100;28;20470;-89
2022/04/28 10:15:43;;;;;;;14.57;3.83;;;13.90;78.30;;;;;;5001292;28;20054;-88
2022/04/28 10:18:12;;;;;;;11.23;2.53;;;13.20;79.80;;;;;;4984807;28;20046;-89
2022/04/28 10:20:47;;;;;;;12.07;2.38;;;13.90;75.20;;;;;;4983823;28;20042;-89
2022/04/28 10:23:15;;;;;;;10.15;3.05;;;14.00;70.50;;;;;;5018367;28;20060;-89
2022/04/28 10:34:13;;;;;;;15.75;2.60;;;13.40;65.50;;;;;;5017987;28;20054;-89
2022/04/28 10:36:56;;;;;;;;;;;13.60;64.90;;;;;;4984314;28;20045;-88
2022/04/28 10:40:04;;;;;;;12.57;3.05;;;13.70;65.40;;;;;;5000299;28;19989;-89
2022/04/28 10:42:30;;;;;;;9.43;2.35;;;13.60;69.60;;;;;;4982091;28;20046;-88
2022/04/28 10:44:57;;;;;;;11.00;2.67;;;13.80;71.40;;;;;;4983603;28;20046;-88
2022/04/28 10:47:33;;;;;;;8.02;2.55;;;14.00;73.40;;;;;;4984101;28;20050;-88
2022/04/28 10:49:59;;;;;;;11.35;3.20;;;15.30;62.20;;;;;;5017059;28;20050;-89
2022/04/28 10:52:26;;;;;;;12.20;3.10;;;14.70;62.80;;;;;;4984208;28;20072;-89
2022/04/28 10:54:54;;;;;;;12.20;2.80;;;14.30;58.90;;;;;;4984921;28;20042;-88
2022/04/28 10:57:29;;;;;;;19.88;3.22;;;13.90;56.20;;;;;;4983505;28;20050;-89
2022/04/28 10:59:55;;;;;;;9.63;2.28;;;14.40;59.30;;;;;;4983999;28;20115;-89
2022/04/28 11:02:21;;;;;;;8.65;2.45;;;14.20;65.30;;;;;;4999625;28;20471;-89
2022/04/28 11:04:54;;;;;;;8.82;1.95;;;14.40;62.30;;;;;;4983594;28;20137;-89
2022/04/28 11:07:24;;;;;;;11.82;2.53;;;14.60;68.90;;;;;;4984029;28;20042;-89
2022/04/28 11:09:57;;;;;;;10.63;2.40;;;14.50;64.60;;;;;;4999691;28;20045;-89
2022/04/28 11:12:25;;;;;;;12.68;2.63;;;14.80;57.40;;;;;;4983144;28;20042;-89
2022/04/28 11:15:05;;;;;;;14.15;2.63;;;13.60;65.70;;;;;;4982876;28;20080;-89
2022/04/28 11:17:36;;;;;;;9.38;2.83;;;13.60;67.20;;;;;;5016433;28;20045;-89
2022/04/28 11:20:12;;;;;;;16.90;2.97;;;14.30;66.80;;;;;;5016775;28;20050;-89
2022/04/28 11:22:48;;;;;;;16.05;2.75;;;15.20;57.10;;;;;;4967807;28;20049;-89
2022/04/28 11:25:16;;;;;;;11.02;2.33;;;13.90;56.60;;;;;;4983129;28;20046;-89
2022/04/28 11:27:46;;;;;;;12.30;2.60;;;14.30;56.30;;;;;;4983000;28;20042;-89
2022/04/28 11:30:16;;;;;;;19.55;2.95;;;14.70;62.80;;;;;;4982922;28;20049;-89
2022/04/28 11:32:57;;;;;;;7.97;2.15;;;15.10;61.00;;;;;;5017493;28;20053;-89
2022/04/28 11:35:30;;;;;;;10.45;2.05;;;14.60;60.00;;;;;;4999076;28;20038;-89
2022/04/28 11:37:56;;;;;;;13.45;2.67;;;14.20;59.10;;;;;;4966950;28;20100;-89
2022/04/28 11:40:25;;;;;;;8.77;2.40;;;14.00;64.60;;;;;;4983116;28;20048;-89
2022/04/28 11:43:17;;;;;;;14.57;3.28;;;13.90;65.70;;;;;;4982750;28;20408;-89
2022/04/28 11:45:43;;;;;;;9.63;2.47;;;13.70;65.80;;;;;;4980908;28;20054;-89
2022/04/28 11:48:09;;;;;;;11.73;2.55;;;14.10;62.40;;;;;;4982650;28;20052;-88
2022/04/28 11:50:35;;;;;;;12.93;2.50;;;14.80;64.30;;;;;;4982717;28;20033;-89
2022/04/28 11:53:09;;;;;;;12.00;2.70;;;15.10;64.90;;;;;;4981853;28;20052;-89
2022/04/28 11:55:38;;;;;;;7.32;2.28;;;14.70;57.40;;;;;;4998591;28;20120;-88
2022/04/28 11:58:06;;;;;;;14.02;3.60;;;15.00;57.10;;;;;;4981796;28;20599;-89
2022/04/28 12:00:37;;;;;;;12.55;2.00;;;14.30;63.70;;;;;;4998252;28;20046;-89
2022/04/28 12:03:03;;;;;;;12.60;2.28;;;14.40;66.80;;;;;;4998584;28;20332;-88
2022/04/28 12:05:32;;;;;;;9.85;1.98;;;13.70;64.10;;;;;;4983023;28;20140;-89
2022/04/28 12:07:58;;;;;;;18.48;3.13;;;13.90;70.30;;;;;;4998529;28;20492;-89
2022/04/28 12:16:16;;;;;;;8.95;2.80;;;14.30;68.50;;;;;;4985166;28;20057;-89
2022/04/28 12:21:37;;;;;;;8.95;2.63;;;14.30;70.40;;;;;;5019771;28;20069;-91
2022/04/28 12:24:15;;;;;;;7.90;1.88;;;13.90;72.60;;;;;;5011220;28;20121;-91
2022/04/28 12:26:42;;;;;;;14.18;2.33;;;13.90;71.70;;;;;;4994132;28;20042;-91
2022/04/28 12:29:13;;;;;;;10.32;2.28;;;14.30;66.90;;;;;;4994117;28;20077;-93
2022/04/28 12:31:40;;;;;;;9.75;2.95;;;14.70;65.40;;;;;;5010303;28;20069;-90
2022/04/28 12:34:20;;;;;;;10.85;3.63;;;13.90;67.80;;;;;;4997379;28;20052;-90
2022/04/28 12:36:48;;;;;;;12.35;2.35;;;13.60;65.90;;;;;;4999096;28;20041;-92
2022/04/28 12:39:16;;;;;;;16.42;2.47;;;13.70;70.20;;;;;;5014993;28;20052;-92
2022/04/28 12:41:43;;;;;;;16.80;3.28;;;14.40;72.20;;;;;;4999368;28;20045;-92
2022/04/28 12:44:10;;;;;;;15.23;2.75;;;14.80;71.20;;;;;;4998866;28;20046;-92
2022/04/28 12:46:38;;;;;;;16.40;2.58;;;14.70;70.60;;;;;;5014706;28;20041;-91
2022/04/28 12:49:10;;;;;;;9.68;2.15;;;14.10;69.00;;;;;;4998217;28;20068;-92
2022/04/28 12:51:56;;;;;;;9.15;2.15;;;13.40;66.30;;;;;;4995698;28;20022;-92
2022/04/28 12:54:27;;;;;;;10.48;2.75;;;14.10;66.80;;;;;;4995067;28;20596;-92
2022/04/28 12:57:02;;;;;;;12.38;2.75;;;14.70;65.90;;;;;;4997107;28;20061;-91
2022/04/28 12:59:37;;;;;;;7.70;2.05;;;14.60;63.50;;;;;;4997679;28;20061;-91
2022/04/28 13:02:06;;;;;;;7.85;2.55;;;15.30;56.60;;;;;;4997383;28;20033;-92
2022/04/28 13:04:35;;;;;;;13.05;2.28;;;15.00;54.40;;;;;;4996124;28;20041;-92
2022/04/28 13:07:04;;;;;;;12.18;2.53;;;14.40;62.00;;;;;;5017954;28;20038;-92
2022/04/28 13:09:34;;;;;;;7.38;2.58;;;13.80;61.80;;;;;;5017483;28;20053;-89
2022/04/28 13:12:00;;;;;;;16.17;3.53;;;14.10;66.80;;;;;;5014951;28;20068;-92
2022/04/28 13:14:26;;;;;;;13.40;2.15;;;13.40;64.60;;;;;;5000387;28;20050;-92
2022/04/28 13:16:52;;;;;;;16.10;2.92;;;14.00;68.70;;;;;;4999292;28;20076;-93
2022/04/28 13:19:22;;;;;;;13.73;2.33;;;14.70;75.40;;;;;;5006083;28;20093;-89
2022/04/28 13:21:48;;;;;;;8.57;2.05;;;15.90;65.20;;;;;;5008011;28;20026;-87
2022/04/28 13:24:15;;;;;;;15.25;2.13;;;16.00;44.50;;;;;;5024068;28;20026;-88
2022/04/28 13:26:41;;;;;;;8.88;1.67;;;15.30;52.80;;;;;;5006423;28;20046;-88
2022/04/28 13:29:06;;;;;;;8.85;2.08;;;14.80;59.20;;;;;;5022580;28;20094;-91